Time;durP1;ratioP1;P1;durP2;ratioP2;P2;SDS_P1;SDS_P2;PMS_P1;PMS_P2;Temp;Humidity;BMP_temperature;BMP_pressure;BME280_temperature;BME280_humidity;BME280_pressure;Samples;Min_cycle;Max_cycle;Signal;HPM_P1;HPM_P2
2021/12/29 00:01:05;;;;;;;14.45;2.30;;;;;;;;;;4992791;28;20038;-64
2021/12/29 00:03:31;;;;;;;7.70;1.70;;;;;;;;;;4992902;28;20026;-64
2021/12/29 00:05:57;;;;;;;6.55;1.30;;;;;;;;;;4992739;28;20491;-64
2021/12/29 00:08:24;;;;;;;7.75;1.45;;;;;;;;;;4993021;28;20049;-64
2021/12/29 00:10:55;;;;;;;8.70;1.20;;;;;;;;;;4992493;28;20026;-64
2021/12/29 00:13:26;;;;;;;7.60;1.35;;;;;;;;;;4975628;28;20383;-64
2021/12/29 00:15:57;;;;;;;5.53;1.10;;;;;;;;;;4992808;28;20121;-64
2021/12/29 00:18:24;;;;;;;4.22;1.20;;;;;;;;;;4992579;28;20037;-64
2021/12/29 00:20:51;;;;;;;3.97;1.13;;;;;;;;;;4992881;28;20438;-64
2021/12/29 00:23:17;;;;;;;7.00;1.27;;;;;;;;;;4992030;28;20026;-64
2021/12/29 00:25:43;;;;;;;8.70;1.20;;;;;;;;;;4992804;28;20030;-64
2021/12/29 00:28:09;;;;;;;6.75;1.45;;;;;;;;;;4992504;28;20027;-64
2021/12/29 00:30:35;;;;;;;3.03;0.90;;;;;;;;;;4992830;28;20030;-64
2021/12/29 00:33:01;;;;;;;4.85;1.13;;;;;;;;;;4992660;28;20038;-64
2021/12/29 00:35:46;;;;;;;4.57;1.27;;;;;;;;;;4992923;28;20494;-64
2021/12/29 00:38:31;;;;;;;10.68;1.42;;;;;;;;;;4976941;28;20113;-64
2021/12/29 00:41:16;;;;;;;8.35;1.50;;;;;;;;;;4976931;28;20557;-64
2021/12/29 00:44:00;;;;;;;6.57;1.38;;;;;;;;;;4977179;28;20045;-64
2021/12/29 00:46:45;;;;;;;7.95;1.30;;;;;;;;;;4976982;28;20038;-64
2021/12/29 00:49:12;;;;;;;6.65;1.30;;;;;;;;;;4976894;28;20081;-64
2021/12/29 00:51:38;;;;;;;6.75;1.30;;;;;;;;;;4994609;28;20438;-64
2021/12/29 00:54:04;;;;;;;6.63;1.33;;;;;;;;;;4996029;28;20542;-64
2021/12/29 00:56:31;;;;;;;8.73;1.50;;;;;;;;;;4996262;28;20035;-64
2021/12/29 00:58:57;;;;;;;2.20;1.00;;;;;;;;;;4978569;28;20461;-64
2021/12/29 01:01:23;;;;;;;9.45;1.90;;;;;;;;;;4996396;28;20018;-64
2021/12/29 01:03:49;;;;;;;10.27;1.70;;;;;;;;;;4995988;28;20041;-64
2021/12/29 01:06:15;;;;;;;7.25;1.38;;;;;;;;;;4995867;28;20033;-64
2021/12/29 01:08:41;;;;;;;9.25;1.40;;;;;;;;;;4995972;28;20054;-64
2021/12/29 01:11:07;;;;;;;5.22;1.33;;;;;;;;;;4995916;28;20073;-64
2021/12/29 01:13:35;;;;;;;5.55;1.35;;;;;;;;;;4996004;28;20066;-64
2021/12/29 01:18:31;;;;;;;5.47;0.80;;;;;;;;;;4995714;28;20044;-64
2021/12/29 01:20:58;;;;;;;4.20;1.10;;;;;;;;;;4995772;28;20165;-64
2021/12/29 01:23:24;;;;;;;6.43;1.25;;;;;;;;;;4995461;28;20033;-64
2021/12/29 01:25:50;;;;;;;2.72;0.80;;;;;;;;;;4995883;28;20062;-64
2021/12/29 01:28:16;;;;;;;3.13;0.60;;;;;;;;;;4995580;28;20038;-64
2021/12/29 01:30:43;;;;;;;3.03;0.82;;;;;;;;;;4995691;28;20022;-64
2021/12/29 01:33:09;;;;;;;2.45;0.93;;;;;;;;;;4978165;28;20117;-64
2021/12/29 01:35:36;;;;;;;2.78;0.57;;;;;;;;;;4995596;28;20030;-64
2021/12/29 01:38:03;;;;;;;3.08;0.60;;;;;;;;;;4995099;28;20044;-64
2021/12/29 01:40:30;;;;;;;3.08;0.70;;;;;;;;;;4995426;28;20038;-64
2021/12/29 01:42:56;;;;;;;0.75;0.43;;;;;;;;;;4995414;28;20019;-64
2021/12/29 01:45:22;;;;;;;3.03;0.40;;;;;;;;;;4995294;28;20435;-64
2021/12/29 01:47:49;;;;;;;0.65;0.30;;;;;;;;;;4995349;28;20099;-64
2021/12/29 01:50:16;;;;;;;0.40;0.30;;;;;;;;;;4994820;28;20495;-64
2021/12/29 01:52:49;;;;;;;1.40;0.40;;;;;;;;;;4995292;28;20038;-64
2021/12/29 01:55:16;;;;;;;1.02;0.40;;;;;;;;;;4995189;28;20034;-64
2021/12/29 01:57:43;;;;;;;2.45;0.30;;;;;;;;;;4994976;28;20463;-64
2021/12/29 02:00:12;;;;;;;1.50;0.30;;;;;;;;;;4995057;28;20080;-65
2021/12/29 02:02:38;;;;;;;2.15;0.30;;;;;;;;;;4995413;28;20459;-65
2021/12/29 02:05:04;;;;;;;0.30;0.20;;;;;;;;;;4994527;28;20034;-64
2021/12/29 02:07:30;;;;;;;1.30;0.38;;;;;;;;;;4977683;28;20022;-64
2021/12/29 02:09:57;;;;;;;0.75;0.20;;;;;;;;;;4995196;28;20030;-64
2021/12/29 02:12:23;;;;;;;1.83;0.40;;;;;;;;;;4994764;28;20408;-64
2021/12/29 02:14:49;;;;;;;1.42;0.40;;;;;;;;;;4977495;28;20510;-65
2021/12/29 02:17:15;;;;;;;0.73;0.35;;;;;;;;;;4994455;28;20122;-64
2021/12/29 02:19:46;;;;;;;2.08;0.40;;;;;;;;;;4994375;28;20026;-64
2021/12/29 02:25:06;;;;;;;2.83;0.30;;;;;;;;;;4994736;28;20485;-64
2021/12/29 02:27:33;;;;;;;0.32;0.10;;;;;;;;;;4994715;28;20038;-64
2021/12/29 02:29:59;;;;;;;2.30;0.30;;;;;;;;;;4994793;28;20023;-65
2021/12/29 02:32:25;;;;;;;0.43;0.30;;;;;;;;;;4994388;28;20081;-64
2021/12/29 02:34:51;;;;;;;1.20;0.30;;;;;;;;;;4994032;28;20542;-64
2021/12/29 02:37:20;;;;;;;0.77;0.30;;;;;;;;;;4994295;28;20113;-64
2021/12/29 02:39:47;;;;;;;0.77;0.20;;;;;;;;;;4994459;28;20041;-64
2021/12/29 02:42:15;;;;;;;0.75;0.30;;;;;;;;;;4994207;28;20035;-65
2021/12/29 02:44:42;;;;;;;0.50;0.20;;;;;;;;;;4994273;28;20057;-65
2021/12/29 02:47:09;;;;;;;0.30;0.20;;;;;;;;;;4993943;28;20018;-65
2021/12/29 02:49:35;;;;;;;0.70;0.20;;;;;;;;;;4993895;28;20027;-65
2021/12/29 02:52:01;;;;;;;0.30;0.13;;;;;;;;;;4994382;28;20402;-64
2021/12/29 02:54:27;;;;;;;2.67;0.22;;;;;;;;;;4976329;28;20035;-65
2021/12/29 02:56:54;;;;;;;0.40;0.22;;;;;;;;;;4994175;28;20065;-65
2021/12/29 02:59:21;;;;;;;0.20;0.15;;;;;;;;;;4993337;28;20031;-65
2021/12/29 03:01:47;;;;;;;2.10;0.65;;;;;;;;;;4993912;28;20445;-65
2021/12/29 03:04:13;;;;;;;0.90;0.25;;;;;;;;;;4993546;28;20022;-65
2021/12/29 03:06:40;;;;;;;1.73;0.30;;;;;;;;;;4993978;28;20018;-65
2021/12/29 03:09:07;;;;;;;1.77;0.60;;;;;;;;;;4993999;28;20026;-65
2021/12/29 03:11:34;;;;;;;3.42;0.43;;;;;;;;;;4993815;28;20114;-65
2021/12/29 03:14:00;;;;;;;5.97;0.60;;;;;;;;;;4993736;28;20033;-65
2021/12/29 03:16:27;;;;;;;4.03;1.27;;;;;;;;;;4993509;28;20026;-64
2021/12/29 03:18:53;;;;;;;1.10;0.30;;;;;;;;;;4993391;28;20030;-64
2021/12/29 03:21:19;;;;;;;2.90;0.50;;;;;;;;;;4993648;28;20093;-64
2021/12/29 03:23:45;;;;;;;3.15;1.60;;;;;;;;;;4993666;28;20023;-64
2021/12/29 03:26:12;;;;;;;1.27;0.40;;;;;;;;;;4993520;28;20023;-64
2021/12/29 03:28:39;;;;;;;5.03;0.60;;;;;;;;;;4993375;28;20022;-65
2021/12/29 03:31:10;;;;;;;3.67;0.57;;;;;;;;;;4993399;28;20026;-65
2021/12/29 03:33:36;;;;;;;3.53;0.63;;;;;;;;;;4992985;28;20034;-65
2021/12/29 03:36:03;;;;;;;4.28;0.60;;;;;;;;;;4975720;28;20038;-65
2021/12/29 03:38:31;;;;;;;7.05;0.60;;;;;;;;;;4993040;28;20043;-65
2021/12/29 03:40:57;;;;;;;3.30;0.50;;;;;;;;;;4993246;28;20125;-65
2021/12/29 03:43:24;;;;;;;5.25;0.70;;;;;;;;;;4993260;28;20031;-64
2021/12/29 03:45:51;;;;;;;2.70;0.50;;;;;;;;;;4993338;28;20061;-65
2021/12/29 03:48:18;;;;;;;0.65;0.40;;;;;;;;;;4992744;28;20081;-64
2021/12/29 03:50:46;;;;;;;4.22;0.50;;;;;;;;;;4992927;28;20069;-64
2021/12/29 03:53:14;;;;;;;2.30;1.13;;;;;;;;;;4993148;28;20038;-64
2021/12/29 03:55:43;;;;;;;4.90;0.40;;;;;;;;;;4993017;28;20023;-64
2021/12/29 03:58:09;;;;;;;4.63;0.60;;;;;;;;;;4992869;28;20080;-65
2021/12/29 04:00:35;;;;;;;2.33;0.47;;;;;;;;;;4992824;28;20390;-64
2021/12/29 04:03:02;;;;;;;4.22;0.55;;;;;;;;;;4992563;28;20018;-64
2021/12/29 04:05:28;;;;;;;1.58;0.30;;;;;;;;;;4992085;28;20027;-64
2021/12/29 04:07:55;;;;;;;1.73;0.40;;;;;;;;;;4992761;28;20041;-64
2021/12/29 04:10:22;;;;;;;1.35;0.45;;;;;;;;;;4991910;28;20371;-64
2021/12/29 04:12:48;;;;;;;1.30;0.98;;;;;;;;;;4992463;28;20030;-64
2021/12/29 04:15:15;;;;;;;2.13;0.50;;;;;;;;;;4992699;28;20030;-64
2021/12/29 04:17:42;;;;;;;5.22;0.40;;;;;;;;;;4992517;28;20089;-64
2021/12/29 04:22:57;;;;;;;1.50;0.47;;;;;;;;;;4992965;28;20101;-64
2021/12/29 04:25:24;;;;;;;1.77;0.38;;;;;;;;;;4992605;28;20050;-64
2021/12/29 04:27:51;;;;;;;3.28;0.47;;;;;;;;;;4992463;28;20454;-64
2021/12/29 04:30:17;;;;;;;1.50;0.38;;;;;;;;;;4992118;28;20023;-64
2021/12/29 04:32:43;;;;;;;1.33;0.30;;;;;;;;;;4975037;28;20033;-65
2021/12/29 04:35:10;;;;;;;0.73;0.25;;;;;;;;;;4992547;28;20452;-64
2021/12/29 04:37:36;;;;;;;3.13;0.40;;;;;;;;;;4992436;28;20050;-65
2021/12/29 04:40:02;;;;;;;2.83;0.35;;;;;;;;;;4992617;28;20027;-64
2021/12/29 04:42:28;;;;;;;4.55;0.70;;;;;;;;;;4992328;28;20062;-64
2021/12/29 04:44:54;;;;;;;6.15;0.70;;;;;;;;;;4992035;28;20081;-64
2021/12/29 04:47:27;;;;;;;1.63;0.52;;;;;;;;;;4992380;28;20034;-64
2021/12/29 04:49:54;;;;;;;2.72;0.35;;;;;;;;;;4992643;28;20077;-64
2021/12/29 04:52:20;;;;;;;1.85;0.50;;;;;;;;;;4992431;28;20027;-64
2021/12/29 04:54:46;;;;;;;2.92;0.70;;;;;;;;;;4992404;28;20023;-64
2021/12/29 04:57:12;;;;;;;3.53;0.60;;;;;;;;;;4992365;28;20027;-64
2021/12/29 04:59:38;;;;;;;4.95;0.90;;;;;;;;;;4991542;28;20027;-64
2021/12/29 05:02:04;;;;;;;3.08;0.55;;;;;;;;;;4992409;28;20029;-64
2021/12/29 05:04:33;;;;;;;1.83;0.80;;;;;;;;;;4992248;28;20026;-64
2021/12/29 05:09:44;;;;;;;6.35;0.63;;;;;;;;;;4992214;28;20027;-65
2021/12/29 05:12:11;;;;;;;9.63;0.70;;;;;;;;;;4992209;28;20086;-65
2021/12/29 05:14:37;;;;;;;5.47;0.80;;;;;;;;;;4991795;28;20022;-64
2021/12/29 05:17:05;;;;;;;2.85;0.80;;;;;;;;;;4992130;28;20022;-64
2021/12/29 05:19:31;;;;;;;4.10;1.67;;;;;;;;;;4992465;28;20031;-64
2021/12/29 05:21:57;;;;;;;7.00;1.17;;;;;;;;;;4992783;28;20040;-64
2021/12/29 05:24:24;;;;;;;7.20;1.13;;;;;;;;;;4995748;28;20133;-64
2021/12/29 05:26:50;;;;;;;7.22;1.38;;;;;;;;;;4995548;28;20049;-64
2021/12/29 05:29:16;;;;;;;10.73;1.00;;;;;;;;;;4995608;28;20034;-64
2021/12/29 05:31:42;;;;;;;5.82;1.58;;;;;;;;;;4995451;28;20034;-64
2021/12/29 05:34:08;;;;;;;4.95;1.20;;;;;;;;;;4993663;28;20022;-64
2021/12/29 05:36:34;;;;;;;5.43;0.98;;;;;;;;;;4994180;28;20026;-64
2021/12/29 05:39:01;;;;;;;6.55;1.10;;;;;;;;;;4994566;28;20100;-64
2021/12/29 05:41:27;;;;;;;9.32;3.05;;;;;;;;;;4994600;28;20423;-64
2021/12/29 05:43:53;;;;;;;4.97;1.13;;;;;;;;;;4992107;28;20014;-64
2021/12/29 05:46:19;;;;;;;11.23;1.88;;;;;;;;;;4994827;28;20390;-64
2021/12/29 05:48:45;;;;;;;5.90;1.20;;;;;;;;;;4993339;28;20487;-64
2021/12/29 05:51:12;;;;;;;5.45;1.02;;;;;;;;;;4994622;28;20037;-64
2021/12/29 05:53:39;;;;;;;11.23;2.10;;;;;;;;;;4994148;28;20379;-64
2021/12/29 05:56:05;;;;;;;8.85;1.20;;;;;;;;;;4994754;28;20045;-64
2021/12/29 05:58:32;;;;;;;7.15;1.40;;;;;;;;;;4993264;28;20106;-64
2021/12/29 06:00:58;;;;;;;10.98;1.92;;;;;;;;;;4994214;28;20038;-64
2021/12/29 06:03:24;;;;;;;6.72;1.35;;;;;;;;;;4994298;28;20027;-64
2021/12/29 06:05:50;;;;;;;8.70;1.23;;;;;;;;;;4994245;28;20073;-64
2021/12/29 06:08:16;;;;;;;8.52;1.40;;;;;;;;;;4994336;28;20108;-64
2021/12/29 06:10:42;;;;;;;7.22;2.25;;;;;;;;;;4993808;28;20081;-64
2021/12/29 06:13:08;;;;;;;12.93;2.22;;;;;;;;;;5000956;28;20557;-64
2021/12/29 06:15:34;;;;;;;3.70;0.95;;;;;;;;;;4995375;28;21037;-64
2021/12/29 06:18:01;;;;;;;5.93;1.42;;;;;;;;;;4993699;28;20038;-64
2021/12/29 06:20:27;;;;;;;10.88;2.03;;;;;;;;;;4994120;28;20442;-64
2021/12/29 06:22:53;;;;;;;6.60;1.17;;;;;;;;;;4993654;28;20402;-64
2021/12/29 06:25:19;;;;;;;6.32;1.45;;;;;;;;;;4997611;28;20022;-64
2021/12/29 06:27:45;;;;;;;11.30;2.17;;;;;;;;;;4997690;28;20026;-64
2021/12/29 06:30:13;;;;;;;7.95;1.60;;;;;;;;;;4994936;28;20033;-64
2021/12/29 06:32:39;;;;;;;8.15;1.23;;;;;;;;;;4993583;28;20039;-64
2021/12/29 06:35:06;;;;;;;9.75;1.92;;;;;;;;;;4995818;28;20038;-64
2021/12/29 06:37:32;;;;;;;16.63;1.83;;;;;;;;;;4995205;28;20121;-64
2021/12/29 06:39:59;;;;;;;9.85;2.03;;;;;;;;;;4999019;28;20116;-64
2021/12/29 06:42:25;;;;;;;6.55;1.70;;;;;;;;;;4997302;28;20030;-64
2021/12/29 06:44:51;;;;;;;13.82;2.35;;;;;;;;;;4993396;28;20153;-64
2021/12/29 06:47:17;;;;;;;15.32;2.35;;;;;;;;;;4994282;28;20502;-64
2021/12/29 06:49:44;;;;;;;8.95;1.77;;;;;;;;;;4993754;28;20041;-64
2021/12/29 06:52:10;;;;;;;16.83;2.33;;;;;;;;;;4995278;28;20498;-64
2021/12/29 06:54:37;;;;;;;13.90;2.38;;;;;;;;;;4996027;28;20030;-64
2021/12/29 06:57:04;;;;;;;11.38;1.70;;;;;;;;;;4997361;28;20030;-64
2021/12/29 06:59:30;;;;;;;7.45;1.60;;;;;;;;;;4993957;28;20384;-64
2021/12/29 07:01:56;;;;;;;10.27;1.60;;;;;;;;;;4995045;28;20710;-64
2021/12/29 07:04:23;;;;;;;9.63;1.83;;;;;;;;;;4995937;28;20398;-64
2021/12/29 07:06:50;;;;;;;8.18;1.70;;;;;;;;;;5002219;28;20018;-64
2021/12/29 07:09:16;;;;;;;10.63;1.88;;;;;;;;;;4999762;28;20033;-64
2021/12/29 07:11:42;;;;;;;9.70;1.40;;;;;;;;;;4996643;28;20056;-64
2021/12/29 07:14:09;;;;;;;10.40;1.40;;;;;;;;;;5009544;28;20026;-64
2021/12/29 07:16:36;;;;;;;12.07;1.52;;;;;;;;;;4997060;28;20070;-64
2021/12/29 07:19:03;;;;;;;9.45;1.40;;;;;;;;;;4989539;28;20030;-64
2021/12/29 07:21:29;;;;;;;7.93;1.83;;;;;;;;;;4992290;28;20029;-64
2021/12/29 07:23:55;;;;;;;5.65;1.25;;;;;;;;;;4992983;28;20089;-64
2021/12/29 07:26:25;;;;;;;12.18;2.85;;;;;;;;;;4997397;28;20014;-64
2021/12/29 07:28:52;;;;;;;13.13;2.42;;;;;;;;;;4991658;28;20101;-64
2021/12/29 07:31:19;;;;;;;8.25;1.65;;;;;;;;;;4992798;28;20026;-64
2021/12/29 07:33:45;;;;;;;13.25;2.45;;;;;;;;;;4992421;28;20077;-64
2021/12/29 07:36:12;;;;;;;9.20;2.08;;;;;;;;;;4992378;28;20037;-64
2021/12/29 07:38:42;;;;;;;7.03;1.20;;;;;;;;;;4994404;28;20038;-64
2021/12/29 07:41:09;;;;;;;8.68;1.40;;;;;;;;;;4993115;28;20073;-64
2021/12/29 07:43:36;;;;;;;6.93;1.58;;;;;;;;;;4992234;28;20027;-64
2021/12/29 07:46:03;;;;;;;7.97;1.58;;;;;;;;;;4989741;28;20039;-66
2021/12/29 07:48:30;;;;;;;6.15;1.00;;;;;;;;;;4984277;28;20075;-71
2021/12/29 07:50:57;;;;;;;4.70;1.25;;;;;;;;;;4975560;28;20429;-76
2021/12/29 07:53:23;;;;;;;7.50;1.20;;;;;;;;;;4980538;28;20021;-75
2021/12/29 07:55:49;;;;;;;3.38;0.90;;;;;;;;;;4975554;28;20113;-77
2021/12/29 07:58:15;;;;;;;2.90;0.90;;;;;;;;;;4975706;28;20490;-77
2021/12/29 08:00:43;;;;;;;9.13;0.90;;;;;;;;;;4979227;28;20043;-75
2021/12/29 08:03:11;;;;;;;3.30;1.02;;;;;;;;;;4975081;28;20053;-76
2021/12/29 08:05:37;;;;;;;6.22;1.58;;;;;;;;;;4975574;28;20023;-76
2021/12/29 08:08:05;;;;;;;7.35;1.20;;;;;;;;;;4974997;28;20023;-75
2021/12/29 08:10:32;;;;;;;5.65;1.02;;;;;;;;;;4981452;28;20371;-77
2021/12/29 08:12:58;;;;;;;5.68;1.33;;;;;;;;;;4974405;28;20053;-76
2021/12/29 08:15:24;;;;;;;6.90;1.40;;;;;;;;;;4984100;28;20089;-66
2021/12/29 08:17:51;;;;;;;5.65;1.00;;;;;;;;;;4978753;28;20029;-66
2021/12/29 08:20:17;;;;;;;5.20;1.10;;;;;;;;;;4989133;28;20065;-66
2021/12/29 08:22:43;;;;;;;6.68;1.00;;;;;;;;;;4991454;28;20014;-66
2021/12/29 08:25:09;;;;;;;10.05;1.02;;;;;;;;;;4991726;28;20022;-66
2021/12/29 08:27:35;;;;;;;5.30;1.35;;;;;;;;;;4991164;28;20062;-66
2021/12/29 08:30:01;;;;;;;7.43;1.40;;;;;;;;;;4991486;28;20046;-66
2021/12/29 08:32:28;;;;;;;7.70;1.20;;;;;;;;;;4982762;28;20042;-66
2021/12/29 08:34:54;;;;;;;5.05;1.15;;;;;;;;;;4989290;28;20026;-66
2021/12/29 08:37:20;;;;;;;3.85;0.95;;;;;;;;;;4988902;28;20043;-66
2021/12/29 08:39:46;;;;;;;5.68;1.40;;;;;;;;;;4991302;28;20031;-66
2021/12/29 08:42:12;;;;;;;5.85;1.25;;;;;;;;;;4993238;28;20083;-66
2021/12/29 08:44:38;;;;;;;8.57;1.33;;;;;;;;;;4988726;28;20037;-66
2021/12/29 08:47:05;;;;;;;15.10;1.85;;;;;;;;;;4986581;28;21246;-66
2021/12/29 08:49:31;;;;;;;7.72;1.67;;;;;;;;;;4989442;28;20112;-66
2021/12/29 08:51:57;;;;;;;6.63;1.65;;;;;;;;;;4989384;28;20030;-66
2021/12/29 08:54:26;;;;;;;9.10;1.95;;;;;;;;;;4989584;28;20041;-66
2021/12/29 08:56:54;;;;;;;10.20;1.80;;;;;;;;;;4989872;28;20379;-66
2021/12/29 08:59:21;;;;;;;4.72;1.42;;;;;;;;;;4993862;28;20030;-66
2021/12/29 09:01:47;;;;;;;7.35;2.33;;;;;;;;;;4995341;28;20447;-66
2021/12/29 09:04:14;;;;;;;7.45;1.10;;;;;;;;;;4992179;28;20030;-66
2021/12/29 09:06:40;;;;;;;7.20;1.73;;;;;;;;;;4983563;28;20098;-66
2021/12/29 09:09:06;;;;;;;8.70;1.55;;;;;;;;;;4991735;28;20041;-66
2021/12/29 09:11:32;;;;;;;6.18;1.15;;;;;;;;;;4998849;28;20053;-66
2021/12/29 09:13:59;;;;;;;4.97;1.10;;;;;;;;;;4999538;28;20069;-66
2021/12/29 09:16:26;;;;;;;5.38;1.23;;;;;;;;;;4994332;28;20022;-70
2021/12/29 09:18:52;;;;;;;6.28;1.20;;;;;;;;;;5005598;28;20061;-65
2021/12/29 09:21:18;;;;;;;4.82;1.30;;;;;;;;;;5001110;28;20037;-65
2021/12/29 09:23:46;;;;;;;3.95;1.00;;;;;;;;;;4999854;28;20113;-65
2021/12/29 09:26:14;;;;;;;8.68;0.90;;;;;;;;;;4993500;28;20394;-66
2021/12/29 09:28:40;;;;;;;8.95;1.20;;;;;;;;;;4994140;28;20028;-66
2021/12/29 09:31:06;;;;;;;7.57;1.27;;;;;;;;;;4994516;28;20030;-66
2021/12/29 09:33:33;;;;;;;12.27;1.50;;;;;;;;;;4994582;28;20514;-66
2021/12/29 09:36:03;;;;;;;7.90;1.48;;;;;;;;;;4994797;28;20042;-66
2021/12/29 09:38:35;;;;;;;6.35;1.52;;;;;;;;;;4992771;28;20082;-66
2021/12/29 09:41:02;;;;;;;7.40;2.00;;;;;;;;;;4993020;28;20045;-66
2021/12/29 09:43:28;;;;;;;8.45;1.60;;;;;;;;;;4999746;28;20084;-66
2021/12/29 09:45:54;;;;;;;4.70;1.30;;;;;;;;;;4993819;28;20038;-66
2021/12/29 09:48:21;;;;;;;7.85;1.23;;;;;;;;;;4994236;28;20049;-66
2021/12/29 09:50:48;;;;;;;6.97;1.67;;;;;;;;;;4998146;28;20061;-66
2021/12/29 09:53:14;;;;;;;7.65;1.58;;;;;;;;;;5000969;28;20038;-66
2021/12/29 09:55:44;;;;;;;10.90;1.90;;;;;;;;;;4993284;28;20038;-66
2021/12/29 09:58:10;;;;;;;11.07;3.25;;;;;;;;;;4993315;28;20062;-66
2021/12/29 10:00:48;;;;;;;5.88;1.08;;;;;;;;;;4992371;28;20513;-66
2021/12/29 10:03:16;;;;;;;6.72;1.40;;;;;;;;;;4974431;28;20023;-66
2021/12/29 10:05:43;;;;;;;16.92;2.65;;;;;;;;;;4993857;28;20632;-66
2021/12/29 10:08:11;;;;;;;6.80;1.30;;;;;;;;;;4988913;28;20398;-66
2021/12/29 10:10:39;;;;;;;9.18;1.40;;;;;;;;;;4972253;28;20027;-66
2021/12/29 10:13:06;;;;;;;11.10;1.80;;;;;;;;;;4990571;28;20034;-66
2021/12/29 10:15:34;;;;;;;4.05;1.33;;;;;;;;;;4989989;28;20084;-66
2021/12/29 10:18:11;;;;;;;8.27;1.75;;;;;;;;;;4991926;28;20054;-66
2021/12/29 10:20:44;;;;;;;8.57;1.52;;;;;;;;;;4985122;28;20056;-66
2021/12/29 10:23:14;;;;;;;7.68;1.35;;;;;;;;;;4998244;28;20037;-66
2021/12/29 10:25:40;;;;;;;10.48;1.60;;;;;;;;;;4987153;28;20078;-66
2021/12/29 10:28:06;;;;;;;5.75;1.20;;;;;;;;;;4991321;28;20026;-66
2021/12/29 10:30:33;;;;;;;5.40;1.23;;;;;;;;;;4974220;28;20030;-66
2021/12/29 10:33:09;;;;;;;10.55;1.75;;;;;;;;;;4994617;28;20062;-66
2021/12/29 10:35:35;;;;;;;7.63;1.50;;;;;;;;;;4990094;28;20066;-66
2021/12/29 10:38:12;;;;;;;5.90;1.15;;;;;;;;;;4999143;28;20042;-66
2021/12/29 10:40:38;;;;;;;3.00;1.10;;;;;;;;;;4974675;28;20117;-66
2021/12/29 10:43:05;;;;;;;10.70;1.50;;;;;;;;;;4975790;28;20487;-66
2021/12/29 10:45:33;;;;;;;6.93;1.40;;;;;;;;;;4992068;28;20034;-66
2021/12/29 10:47:59;;;;;;;7.35;1.40;;;;;;;;;;4987335;28;20081;-66
2021/12/29 10:50:27;;;;;;;8.70;2.15;;;;;;;;;;4992499;28;20030;-66
2021/12/29 10:52:55;;;;;;;10.88;1.45;;;;;;;;;;4997863;28;20030;-66
2021/12/29 10:55:22;;;;;;;4.15;1.45;;;;;;;;;;4992159;28;20050;-66
2021/12/29 10:58:01;;;;;;;10.07;1.77;;;;;;;;;;4972427;28;20856;-66
2021/12/29 11:00:27;;;;;;;6.63;1.60;;;;;;;;;;4993142;28;20027;-66
2021/12/29 11:02:57;;;;;;;10.50;1.88;;;;;;;;;;4993264;28;20026;-67
2021/12/29 11:05:23;;;;;;;9.55;2.30;;;;;;;;;;4971973;28;20035;-67
2021/12/29 11:07:49;;;;;;;13.70;1.83;;;;;;;;;;4999464;28;20030;-66
2021/12/29 11:10:20;;;;;;;11.45;2.58;;;;;;;;;;4992000;28;20045;-66
2021/12/29 11:12:56;;;;;;;9.20;1.85;;;;;;;;;;4993238;28;20372;-66
2021/12/29 11:15:22;;;;;;;7.28;2.63;;;;;;;;;;4994000;28;20109;-66
2021/12/29 11:17:48;;;;;;;6.07;1.63;;;;;;;;;;4992955;28;20026;-67
2021/12/29 11:20:22;;;;;;;5.90;1.50;;;;;;;;;;4988386;28;20371;-67
2021/12/29 11:22:48;;;;;;;8.35;1.33;;;;;;;;;;4974526;28;20399;-67
2021/12/29 11:25:14;;;;;;;12.88;2.03;;;;;;;;;;4993614;28;20026;-67
2021/12/29 11:27:41;;;;;;;8.35;1.50;;;;;;;;;;4988847;28;20026;-67
2021/12/29 11:30:11;;;;;;;9.45;1.70;;;;;;;;;;4993994;28;20026;-67
2021/12/29 11:32:42;;;;;;;11.88;1.77;;;;;;;;;;5003202;28;20050;-67
2021/12/29 11:35:09;;;;;;;13.05;2.05;;;;;;;;;;5001741;28;20045;-67
2021/12/29 11:37:39;;;;;;;10.93;2.58;;;;;;;;;;4996867;28;20049;-67
2021/12/29 11:40:07;;;;;;;14.63;2.83;;;;;;;;;;4999872;28;20346;-67
2021/12/29 11:42:33;;;;;;;12.80;1.95;;;;;;;;;;4997214;28;20038;-67
2021/12/29 11:44:59;;;;;;;11.90;2.00;;;;;;;;;;4991385;28;20076;-67
2021/12/29 11:47:25;;;;;;;9.88;1.77;;;;;;;;;;4999211;28;20030;-67
2021/12/29 11:49:51;;;;;;;10.45;1.85;;;;;;;;;;4994119;28;20034;-67
2021/12/29 11:52:17;;;;;;;10.88;1.90;;;;;;;;;;4994722;28;20034;-67
2021/12/29 11:55:03;;;;;;;11.57;3.00;;;;;;;;;;4990496;28;20037;-67
2021/12/29 11:57:30;;;;;;;16.85;2.28;;;;;;;;;;4993042;28;20398;-66
2021/12/29 12:00:12;;;;;;;16.15;2.20;;;;;;;;;;4996594;28;20224;-67
2021/12/29 12:02:38;;;;;;;17.63;2.50;;;;;;;;;;4987106;28;20026;-67
2021/12/29 12:05:06;;;;;;;19.15;3.10;;;;;;;;;;4991119;28;20019;-66
2021/12/29 12:07:32;;;;;;;15.57;3.17;;;;;;;;;;4994121;28;20014;-66
2021/12/29 12:10:02;;;;;;;11.40;2.22;;;;;;;;;;4996132;28;20030;-66
2021/12/29 12:12:35;;;;;;;13.45;3.38;;;;;;;;;;4997370;28;20036;-66
2021/12/29 12:15:02;;;;;;;20.20;3.38;;;;;;;;;;4991254;28;20076;-66
2021/12/29 12:17:28;;;;;;;14.27;2.70;;;;;;;;;;4975235;28;20100;-66
2021/12/29 12:19:59;;;;;;;15.25;3.15;;;;;;;;;;4992007;28;20040;-71
2021/12/29 12:22:27;;;;;;;18.20;2.78;;;;;;;;;;4991024;28;20447;-66
2021/12/29 12:24:58;;;;;;;16.25;2.78;;;;;;;;;;4991433;28;20057;-67
2021/12/29 12:27:44;;;;;;;14.73;3.00;;;;;;;;;;4991170;28;20114;-66
2021/12/29 12:30:11;;;;;;;14.07;3.75;;;;;;;;;;4995434;28;20026;-66
2021/12/29 12:32:43;;;;;;;18.70;2.72;;;;;;;;;;4995926;28;20061;-66
2021/12/29 12:35:09;;;;;;;22.45;3.92;;;;;;;;;;4991316;28;20026;-67
2021/12/29 12:37:46;;;;;;;23.88;4.35;;;;;;;;;;4996782;28;20584;-67
2021/12/29 12:40:12;;;;;;;19.08;3.55;;;;;;;;;;4998151;28;20026;-66
2021/12/29 12:42:39;;;;;;;15.70;3.38;;;;;;;;;;5001678;28;20117;-66
2021/12/29 12:45:17;;;;;;;16.75;3.92;;;;;;;;;;5010130;28;20503;-66
2021/12/29 12:47:43;;;;;;;19.17;3.22;;;;;;;;;;5009141;28;20022;-66
2021/12/29 12:50:09;;;;;;;17.33;3.25;;;;;;;;;;4995273;28;20037;-66
2021/12/29 12:52:40;;;;;;;15.98;2.97;;;;;;;;;;4994972;28;20041;-66
2021/12/29 12:55:08;;;;;;;13.10;2.67;;;;;;;;;;4995900;28;20033;-66
2021/12/29 12:57:36;;;;;;;18.35;3.65;;;;;;;;;;4994653;28;20228;-67
2021/12/29 13:00:11;;;;;;;24.15;3.90;;;;;;;;;;4988376;28;20035;-67
2021/12/29 13:02:39;;;;;;;22.27;4.25;;;;;;;;;;5003121;28;20133;-67
2021/12/29 13:05:14;;;;;;;15.05;3.20;;;;;;;;;;4998889;28;20137;-70
2021/12/29 13:07:41;;;;;;;18.40;4.97;;;;;;;;;;4998798;28;20406;-67
2021/12/29 13:10:09;;;;;;;15.88;4.75;;;;;;;;;;4989638;28;20069;-69
2021/12/29 13:12:36;;;;;;;18.63;4.35;;;;;;;;;;4996518;28;20438;-69
2021/12/29 13:15:04;;;;;;;27.50;4.55;;;;;;;;;;5006771;28;20041;-68
2021/12/29 13:17:31;;;;;;;23.55;4.28;;;;;;;;;;4996986;28;20037;-71
2021/12/29 13:19:57;;;;;;;29.67;4.07;;;;;;;;;;4994825;28;20569;-69
2021/12/29 13:22:24;;;;;;;12.57;3.22;;;;;;;;;;4996139;28;20031;-68
2021/12/29 13:24:50;;;;;;;14.85;3.17;;;;;;;;;;5001787;28;20021;-68
2021/12/29 13:27:21;;;;;;;16.67;3.40;;;;;;;;;;5012984;28;20080;-67
2021/12/29 13:29:57;;;;;;;15.98;3.92;;;;;;;;;;5001791;28;20026;-70
2021/12/29 13:32:23;;;;;;;18.75;3.63;;;;;;;;;;4997442;28;20060;-69
2021/12/29 13:34:58;;;;;;;16.25;3.80;;;;;;;;;;5008267;28;20057;-70
2021/12/29 13:37:24;;;;;;;14.95;3.58;;;;;;;;;;5003588;28;20209;-72
2021/12/29 13:39:52;;;;;;;18.67;3.30;;;;;;;;;;5002688;28;20037;-68
2021/12/29 13:42:18;;;;;;;19.88;3.50;;;;;;;;;;4995742;28;20088;-68
2021/12/29 13:44:44;;;;;;;21.00;3.78;;;;;;;;;;4998811;28;20037;-72
2021/12/29 13:47:11;;;;;;;21.08;5.18;;;;;;;;;;4983697;28;20058;-69
2021/12/29 13:49:37;;;;;;;20.42;4.13;;;;;;;;;;5001614;28;20097;-69
2021/12/29 13:52:03;;;;;;;27.08;4.45;;;;;;;;;;5003897;28;20555;-69
2021/12/29 13:54:30;;;;;;;18.20;3.72;;;;;;;;;;5001477;28;20049;-70
2021/12/29 13:56:57;;;;;;;20.95;4.13;;;;;;;;;;4994360;28;20042;-69
2021/12/29 13:59:24;;;;;;;30.02;5.43;;;;;;;;;;5004641;28;20030;-67
2021/12/29 14:01:51;;;;;;;22.83;3.30;;;;;;;;;;5004794;28;20504;-70
2021/12/29 14:04:18;;;;;;;22.08;4.30;;;;;;;;;;5004199;28;20037;-70
2021/12/29 14:06:45;;;;;;;24.77;3.58;;;;;;;;;;5000380;28;20026;-68
2021/12/29 14:09:12;;;;;;;27.98;4.40;;;;;;;;;;4992315;28;20069;-68
2021/12/29 14:11:39;;;;;;;21.08;4.20;;;;;;;;;;4993095;28;20030;-68
2021/12/29 14:14:10;;;;;;;22.33;4.00;;;;;;;;;;4992417;28;20494;-69
2021/12/29 14:16:46;;;;;;;18.70;4.40;;;;;;;;;;4983299;28;20046;-67
2021/12/29 14:19:14;;;;;;;19.02;4.15;;;;;;;;;;4981734;28;20450;-67
2021/12/29 14:21:41;;;;;;;22.88;4.32;;;;;;;;;;4992609;28;20067;-67
2021/12/29 14:24:11;;;;;;;24.27;4.22;;;;;;;;;;4992233;28;20505;-67
2021/12/29 14:26:45;;;;;;;18.05;3.95;;;;;;;;;;4993809;28;20113;-67
2021/12/29 14:29:11;;;;;;;22.10;3.88;;;;;;;;;;4990201;28;20038;-67
2021/12/29 14:31:39;;;;;;;26.73;5.43;;;;;;;;;;4986216;28;20376;-67
2021/12/29 14:34:06;;;;;;;22.52;4.10;;;;;;;;;;4987155;28;20038;-67
2021/12/29 14:36:45;;;;;;;20.35;4.63;;;;;;;;;;4994756;28;20092;-67
2021/12/29 14:39:11;;;;;;;30.27;4.18;;;;;;;;;;4992930;28;20037;-67
2021/12/29 14:41:37;;;;;;;19.50;4.45;;;;;;;;;;4992274;28;20034;-67
2021/12/29 14:44:07;;;;;;;25.02;4.13;;;;;;;;;;4986191;28;20435;-67
2021/12/29 14:46:33;;;;;;;19.30;4.22;;;;;;;;;;4990071;28;20033;-67
2021/12/29 14:49:01;;;;;;;23.30;3.63;;;;;;;;;;4990828;28;20057;-67
2021/12/29 14:51:27;;;;;;;23.48;4.38;;;;;;;;;;4988091;28;20045;-67